sensor_id;sensor_type;location;lat;lon;timestamp;pressure;altitude;pressure_sealevel;temperature
17716;BMP280;50159;49.426;11.182;2022-11-15T00:01:17;97607.34;;;5.97
17716;BMP280;50159;49.426;11.182;2022-11-15T00:03:44;97605.78;;;5.95
17716;BMP280;50159;49.426;11.182;2022-11-15T00:06:12;97602.47;;;5.93
17716;BMP280;50159;49.426;11.182;2022-11-15T00:08:38;97596.69;;;5.89
17716;BMP280;50159;49.426;11.182;2022-11-15T00:11:05;97591.69;;;5.86
17716;BMP280;50159;49.426;11.182;2022-11-15T00:13:32;97596.13;;;5.84
17716;BMP280;50159;49.426;11.182;2022-11-15T00:16:01;97596.22;;;5.83
17716;BMP280;50159;49.426;11.182;2022-11-15T00:18:29;97595.56;;;5.80
17716;BMP280;50159;49.426;11.182;2022-11-15T00:21:09;97595.78;;;5.77
17716;BMP280;50159;49.426;11.182;2022-11-15T00:23:36;97601.81;;;5.76
17716;BMP280;50159;49.426;11.182;2022-11-15T00:26:04;97601.91;;;5.74
17716;BMP280;50159;49.426;11.182;2022-11-15T00:28:30;97597.78;;;5.72
17716;BMP280;50159;49.426;11.182;2022-11-15T00:31:06;97599.53;;;5.71
17716;BMP280;50159;49.426;11.182;2022-11-15T00:33:33;97602.13;;;5.71
17716;BMP280;50159;49.426;11.182;2022-11-15T00:36:03;97604.78;;;5.70
17716;BMP280;50159;49.426;11.182;2022-11-15T00:38:36;97602.94;;;5.72
17716;BMP280;50159;49.426;11.182;2022-11-15T00:41:05;97596.03;;;5.72
17716;BMP280;50159;49.426;11.182;2022-11-15T00:43:36;97595.28;;;5.70
17716;BMP280;50159;49.426;11.182;2022-11-15T00:46:03;97598.72;;;5.71
17716;BMP280;50159;49.426;11.182;2022-11-15T00:48:30;97594.38;;;5.71
17716;BMP280;50159;49.426;11.182;2022-11-15T00:50:58;97592.72;;;5.70
17716;BMP280;50159;49.426;11.182;2022-11-15T00:53:24;97580.66;;;5.71
17716;BMP280;50159;49.426;11.182;2022-11-15T00:55:51;97580.75;;;5.69
17716;BMP280;50159;49.426;11.182;2022-11-15T00:58:18;97590.13;;;5.70
17716;BMP280;50159;49.426;11.182;2022-11-15T01:00:45;97580.84;;;5.68
17716;BMP280;50159;49.426;11.182;2022-11-15T01:03:12;97580.00;;;5.67
17716;BMP280;50159;49.426;11.182;2022-11-15T01:05:39;97576.66;;;5.65
17716;BMP280;50159;49.426;11.182;2022-11-15T01:08:06;97581.09;;;5.63
17716;BMP280;50159;49.426;11.182;2022-11-15T01:10:33;97585.50;;;5.61
17716;BMP280;50159;49.426;11.182;2022-11-15T01:13:00;97581.44;;;5.57
17716;BMP280;50159;49.426;11.182;2022-11-15T01:15:27;97584.94;;;5.57
17716;BMP280;50159;49.426;11.182;2022-11-15T01:17:53;97583.59;;;5.51
17716;BMP280;50159;49.426;11.182;2022-11-15T01:20:21;97574.44;;;5.46
17716;BMP280;50159;49.426;11.182;2022-11-15T01:22:48;97574.63;;;5.43
17716;BMP280;50159;49.426;11.182;2022-11-15T01:25:14;97572.06;;;5.43
17716;BMP280;50159;49.426;11.182;2022-11-15T01:27:41;97571.47;;;5.38
17716;BMP280;50159;49.426;11.182;2022-11-15T01:30:08;97571.66;;;5.35
17716;BMP280;50159;49.426;11.182;2022-11-15T01:32:35;97564.94;;;5.33
17716;BMP280;50159;49.426;11.182;2022-11-15T01:35:02;97577.94;;;5.31
17716;BMP280;50159;49.426;11.182;2022-11-15T01:37:29;97561.91;;;5.26
17716;BMP280;50159;49.426;11.182;2022-11-15T01:39:56;97556.75;;;5.26
17716;BMP280;50159;49.426;11.182;2022-11-15T01:42:23;97554.25;;;5.25
17716;BMP280;50159;49.426;11.182;2022-11-15T01:44:50;97559.59;;;5.22
17716;BMP280;50159;49.426;11.182;2022-11-15T01:47:25;97557.00;;;5.22
17716;BMP280;50159;49.426;11.182;2022-11-15T01:50:01;97563.19;;;5.19
17716;BMP280;50159;49.426;11.182;2022-11-15T01:52:33;97558.13;;;5.18
17716;BMP280;50159;49.426;11.182;2022-11-15T01:55:08;97556.56;;;5.15
17716;BMP280;50159;49.426;11.182;2022-11-15T01:57:36;97551.50;;;5.14
17716;BMP280;50159;49.426;11.182;2022-11-15T02:00:05;97543.91;;;5.11
17716;BMP280;50159;49.426;11.182;2022-11-15T02:02:33;97540.50;;;5.11
17716;BMP280;50159;49.426;11.182;2022-11-15T02:05:02;97534.72;;;5.07
17716;BMP280;50159;49.426;11.182;2022-11-15T02:07:31;97530.69;;;5.03
17716;BMP280;50159;49.426;11.182;2022-11-15T02:10:07;97535.00;;;5.03
17716;BMP280;50159;49.426;11.182;2022-11-15T02:12:34;97531.50;;;5.04
17716;BMP280;50159;49.426;11.182;2022-11-15T02:15:05;97522.94;;;5.03
17716;BMP280;50159;49.426;11.182;2022-11-15T02:18:21;97522.13;;;5.03
17716;BMP280;50159;49.426;11.182;2022-11-15T02:21:07;97514.28;;;5.04
17716;BMP280;50159;49.426;11.182;2022-11-15T02:27:49;97507.94;;;5.10
17716;BMP280;50159;49.426;11.182;2022-11-15T02:30:38;97501.69;;;5.13
17716;BMP280;50159;49.426;11.182;2022-11-15T02:36:25;97490.81;;;5.22
17716;BMP280;50159;49.426;11.182;2022-11-15T02:39:11;97482.88;;;5.25
17716;BMP280;50159;49.426;11.182;2022-11-15T02:41:54;97487.06;;;5.28
17716;BMP280;50159;49.426;11.182;2022-11-15T02:44:36;97479.03;;;5.32
17716;BMP280;50159;49.426;11.182;2022-11-15T02:47:11;97483.16;;;5.35
17716;BMP280;50159;49.426;11.182;2022-11-15T02:49:46;97483.81;;;5.38
17716;BMP280;50159;49.426;11.182;2022-11-15T02:52:18;97481.22;;;5.38
17716;BMP280;50159;49.426;11.182;2022-11-15T02:54:56;97471.66;;;5.40
17716;BMP280;50159;49.426;11.182;2022-11-15T02:57:54;97481.88;;;5.41
17716;BMP280;50159;49.426;11.182;2022-11-15T03:00:32;97476.00;;;5.39
17716;BMP280;50159;49.426;11.182;2022-11-15T03:06:44;97467.69;;;5.35
17716;BMP280;50159;49.426;11.182;2022-11-15T03:09:48;97460.88;;;5.34
17716;BMP280;50159;49.426;11.182;2022-11-15T03:12:48;97467.06;;;5.31
17716;BMP280;50159;49.426;11.182;2022-11-15T03:15:20;97465.59;;;5.27
17716;BMP280;50159;49.426;11.182;2022-11-15T03:17:59;97464.22;;;5.22
17716;BMP280;50159;49.426;11.182;2022-11-15T03:20:28;97454.19;;;5.17
17716;BMP280;50159;49.426;11.182;2022-11-15T03:23:06;97451.88;;;5.13
17716;BMP280;50159;49.426;11.182;2022-11-15T03:25:41;97452.97;;;5.09
17716;BMP280;50159;49.426;11.182;2022-11-15T03:28:14;97454.19;;;5.04
17716;BMP280;50159;49.426;11.182;2022-11-15T03:30:43;97445.06;;;4.98
17716;BMP280;50159;49.426;11.182;2022-11-15T03:33:12;97451.31;;;4.94
17716;BMP280;50159;49.426;11.182;2022-11-15T03:35:43;97451.59;;;4.90
17716;BMP280;50159;49.426;11.182;2022-11-15T03:38:24;97451.84;;;4.86
17716;BMP280;50159;49.426;11.182;2022-11-15T03:41:04;97448.66;;;4.82
17716;BMP280;50159;49.426;11.182;2022-11-15T03:43:59;97446.50;;;4.75
17716;BMP280;50159;49.426;11.182;2022-11-15T03:46:44;97438.16;;;4.71
17716;BMP280;50159;49.426;11.182;2022-11-15T03:49:25;97436.50;;;4.70
17716;BMP280;50159;49.426;11.182;2022-11-15T03:51:57;97433.19;;;4.68
17716;BMP280;50159;49.426;11.182;2022-11-15T03:54:25;97435.13;;;4.65
17716;BMP280;50159;49.426;11.182;2022-11-15T03:56:52;97430.94;;;4.63
17716;BMP280;50159;49.426;11.182;2022-11-15T03:59:18;97429.56;;;4.57
17716;BMP280;50159;49.426;11.182;2022-11-15T04:01:45;97424.53;;;4.56
17716;BMP280;50159;49.426;11.182;2022-11-15T04:04:12;97424.63;;;4.54
17716;BMP280;50159;49.426;11.182;2022-11-15T04:06:39;97430.78;;;4.52
17716;BMP280;50159;49.426;11.182;2022-11-15T04:09:06;97424.84;;;4.50
17716;BMP280;50159;49.426;11.182;2022-11-15T04:11:32;97424.84;;;4.50
17716;BMP280;50159;49.426;11.182;2022-11-15T04:13:59;97429.94;;;4.51
17716;BMP280;50159;49.426;11.182;2022-11-15T04:16:26;97430.00;;;4.50
17716;BMP280;50159;49.426;11.182;2022-11-15T04:18:52;97433.59;;;4.47
17716;BMP280;50159;49.426;11.182;2022-11-15T04:21:38;97431.13;;;4.46
17716;BMP280;50159;49.426;11.182;2022-11-15T04:24:23;97433.88;;;4.43
17716;BMP280;50159;49.426;11.182;2022-11-15T04:26:50;97432.31;;;4.41
17716;BMP280;50159;49.426;11.182;2022-11-15T04:29:17;97428.19;;;4.38
17716;BMP280;50159;49.426;11.182;2022-11-15T04:32:06;97432.56;;;4.36
17716;BMP280;50159;49.426;11.182;2022-11-15T04:34:33;97428.31;;;4.35
17716;BMP280;50159;49.426;11.182;2022-11-15T04:36:59;97434.50;;;4.33
17716;BMP280;50159;49.426;11.182;2022-11-15T04:39:40;97435.41;;;4.32
17716;BMP280;50159;49.426;11.182;2022-11-15T04:42:08;97430.63;;;4.26
17716;BMP280;50159;49.426;11.182;2022-11-15T04:44:35;97440.97;;;4.24
17716;BMP280;50159;49.426;11.182;2022-11-15T04:47:02;97437.66;;;4.23
17716;BMP280;50159;49.426;11.182;2022-11-15T04:49:29;97430.31;;;4.17
17716;BMP280;50159;49.426;11.182;2022-11-15T04:51:56;97425.34;;;4.14
17716;BMP280;50159;49.426;11.182;2022-11-15T04:54:22;97420.34;;;4.11
17716;BMP280;50159;49.426;11.182;2022-11-15T04:56:49;97434.31;;;4.07
17716;BMP280;50159;49.426;11.182;2022-11-15T04:59:16;97418.22;;;4.03
17716;BMP280;50159;49.426;11.182;2022-11-15T05:01:43;97424.38;;;4.01
17716;BMP280;50159;49.426;11.182;2022-11-15T05:04:11;97421.03;;;3.99
17716;BMP280;50159;49.426;11.182;2022-11-15T05:06:51;97414.34;;;3.97
17716;BMP280;50159;49.426;11.182;2022-11-15T05:09:20;97413.69;;;3.93
17716;BMP280;50159;49.426;11.182;2022-11-15T05:11:47;97407.81;;;3.91
17716;BMP280;50159;49.426;11.182;2022-11-15T05:14:14;97404.56;;;3.88
17716;BMP280;50159;49.426;11.182;2022-11-15T05:16:42;97404.66;;;3.86
17716;BMP280;50159;49.426;11.182;2022-11-15T05:19:09;97400.41;;;3.85
17716;BMP280;50159;49.426;11.182;2022-11-15T05:21:36;97399.69;;;3.83
17716;BMP280;50159;49.426;11.182;2022-11-15T05:24:04;97394.63;;;3.82
17716;BMP280;50159;49.426;11.182;2022-11-15T05:26:31;97401.69;;;3.79
17716;BMP280;50159;49.426;11.182;2022-11-15T05:28:59;97400.97;;;3.77
17716;BMP280;50159;49.426;11.182;2022-11-15T05:31:26;97399.44;;;3.73
17716;BMP280;50159;49.426;11.182;2022-11-15T05:33:55;97391.81;;;3.71
17716;BMP280;50159;49.426;11.182;2022-11-15T05:36:38;97391.91;;;3.70
17716;BMP280;50159;49.426;11.182;2022-11-15T05:39:08;97391.16;;;3.68
17716;BMP280;50159;49.426;11.182;2022-11-15T05:41:51;97393.00;;;3.66
17716;BMP280;50159;49.426;11.182;2022-11-15T05:44:22;97395.81;;;3.61
17716;BMP280;50159;49.426;11.182;2022-11-15T05:46:53;97393.50;;;3.57
17716;BMP280;50159;49.426;11.182;2022-11-15T05:49:24;97389.38;;;3.55
17716;BMP280;50159;49.426;11.182;2022-11-15T05:51:54;97392.78;;;3.55
17716;BMP280;50159;49.426;11.182;2022-11-15T05:54:23;97395.34;;;3.55
17716;BMP280;50159;49.426;11.182;2022-11-15T05:56:52;97391.84;;;3.56
17716;BMP280;50159;49.426;11.182;2022-11-15T05:59:19;97385.22;;;3.52
17716;BMP280;50159;49.426;11.182;2022-11-15T06:01:46;97389.53;;;3.52
17716;BMP280;50159;49.426;11.182;2022-11-15T06:04:13;97384.53;;;3.49
17716;BMP280;50159;49.426;11.182;2022-11-15T06:06:40;97394.91;;;3.47
17716;BMP280;50159;49.426;11.182;2022-11-15T06:09:06;97388.13;;;3.46
17716;BMP280;50159;49.426;11.182;2022-11-15T06:11:33;97392.53;;;3.44
17716;BMP280;50159;49.426;11.182;2022-11-15T06:14:00;97397.84;;;3.41
17716;BMP280;50159;49.426;11.182;2022-11-15T06:16:27;97397.09;;;3.39
17716;BMP280;50159;49.426;11.182;2022-11-15T06:18:53;97401.47;;;3.37
17716;BMP280;50159;49.426;11.182;2022-11-15T06:21:20;97400.50;;;3.40
17716;BMP280;50159;49.426;11.182;2022-11-15T06:23:50;97392.88;;;3.38
17716;BMP280;50159;49.426;11.182;2022-11-15T06:26:17;97392.00;;;3.38
17716;BMP280;50159;49.426;11.182;2022-11-15T06:28:43;97406.59;;;3.37
17716;BMP280;50159;49.426;11.182;2022-11-15T06:31:11;97398.00;;;3.38
17716;BMP280;50159;49.426;11.182;2022-11-15T06:33:39;97402.25;;;3.39
17716;BMP280;50159;49.426;11.182;2022-11-15T06:36:09;97398.75;;;3.40
17716;BMP280;50159;49.426;11.182;2022-11-15T06:38:44;97402.97;;;3.41
17716;BMP280;50159;49.426;11.182;2022-11-15T06:41:12;97403.81;;;3.42
17716;BMP280;50159;49.426;11.182;2022-11-15T06:43:39;97398.66;;;3.42
17716;BMP280;50159;49.426;11.182;2022-11-15T06:46:07;97396.00;;;3.43
17716;BMP280;50159;49.426;11.182;2022-11-15T06:48:34;97407.84;;;3.46
17716;BMP280;50159;49.426;11.182;2022-11-15T06:51:03;97414.66;;;3.47
17716;BMP280;50159;49.426;11.182;2022-11-15T06:53:31;97414.47;;;3.50
17716;BMP280;50159;49.426;11.182;2022-11-15T06:56:05;97406.63;;;3.53
17716;BMP280;50159;49.426;11.182;2022-11-15T06:58:33;97412.41;;;3.56
17716;BMP280;50159;49.426;11.182;2022-11-15T07:01:03;97413.91;;;3.60
17716;BMP280;50159;49.426;11.182;2022-11-15T07:03:30;97419.72;;;3.63
17716;BMP280;50159;49.426;11.182;2022-11-15T07:05:58;97416.88;;;3.68
17716;BMP280;50159;49.426;11.182;2022-11-15T07:08:33;97413.22;;;3.72
17716;BMP280;50159;49.426;11.182;2022-11-15T07:11:03;97421.44;;;3.78
17716;BMP280;50159;49.426;11.182;2022-11-15T07:13:32;97415.84;;;3.85
17716;BMP280;50159;49.426;11.182;2022-11-15T07:16:05;97419.38;;;3.98
17716;BMP280;50159;49.426;11.182;2022-11-15T07:18:35;97419.28;;;4.15
17716;BMP280;50159;49.426;11.182;2022-11-15T07:21:05;97412.91;;;4.63
17716;BMP280;50159;49.426;11.182;2022-11-15T07:23:32;97407.19;;;5.40
17716;BMP280;50159;49.426;11.182;2022-11-15T07:26:00;97408.31;;;6.40
17716;BMP280;50159;49.426;11.182;2022-11-15T07:28:27;97411.38;;;7.42
17716;BMP280;50159;49.426;11.182;2022-11-15T07:30:54;97402.59;;;8.71
17716;BMP280;50159;49.426;11.182;2022-11-15T07:33:21;97401.72;;;9.99
17716;BMP280;50159;49.426;11.182;2022-11-15T07:35:48;97391.66;;;11.17
17716;BMP280;50159;49.426;11.182;2022-11-15T07:38:17;97382.94;;;12.23
17716;BMP280;50159;49.426;11.182;2022-11-15T07:40:47;97384.91;;;13.12
17716;BMP280;50159;49.426;11.182;2022-11-15T07:43:21;97375.25;;;13.84
17716;BMP280;50159;49.426;11.182;2022-11-15T07:45:48;97376.94;;;14.46
17716;BMP280;50159;49.426;11.182;2022-11-15T07:48:20;97368.28;;;15.04
17716;BMP280;50159;49.426;11.182;2022-11-15T07:50:47;97366.63;;;15.61
17716;BMP280;50159;49.426;11.182;2022-11-15T07:53:14;97362.28;;;16.26
17716;BMP280;50159;49.426;11.182;2022-11-15T07:55:43;97360.03;;;16.85
17716;BMP280;50159;49.426;11.182;2022-11-15T07:58:11;97351.28;;;17.32
17716;BMP280;50159;49.426;11.182;2022-11-15T08:00:38;97345.59;;;17.66
17716;BMP280;50159;49.426;11.182;2022-11-15T08:03:11;97343.63;;;17.68
17716;BMP280;50159;49.426;11.182;2022-11-15T08:05:40;97340.44;;;17.80
17716;BMP280;50159;49.426;11.182;2022-11-15T08:08:10;97333.06;;;17.76
17716;BMP280;50159;49.426;11.182;2022-11-15T08:10:37;97329.38;;;17.55
17716;BMP280;50159;49.426;11.182;2022-11-15T08:13:10;97327.66;;;17.24
17716;BMP280;50159;49.426;11.182;2022-11-15T08:15:38;97319.97;;;16.83
17716;BMP280;50159;49.426;11.182;2022-11-15T08:18:11;97329.97;;;16.33
17716;BMP280;50159;49.426;11.182;2022-11-15T08:20:39;97327.34;;;15.77
17716;BMP280;50159;49.426;11.182;2022-11-15T08:23:07;97327.44;;;15.19
17716;BMP280;50159;49.426;11.182;2022-11-15T08:25:35;97327.66;;;14.58
17716;BMP280;50159;49.426;11.182;2022-11-15T08:28:06;97318.69;;;14.10
17716;BMP280;50159;49.426;11.182;2022-11-15T08:30:40;97319.91;;;13.71
17716;BMP280;50159;49.426;11.182;2022-11-15T08:33:13;97318.84;;;13.38
17716;BMP280;50159;49.426;11.182;2022-11-15T08:35:42;97323.19;;;13.21
17716;BMP280;50159;49.426;11.182;2022-11-15T08:38:09;97311.56;;;13.06
17716;BMP280;50159;49.426;11.182;2022-11-15T08:40:37;97313.84;;;12.82
17716;BMP280;50159;49.426;11.182;2022-11-15T08:43:04;97318.53;;;12.60
17716;BMP280;50159;49.426;11.182;2022-11-15T08:45:33;97310.75;;;12.32
17716;BMP280;50159;49.426;11.182;2022-11-15T08:48:02;97304.59;;;12.15
17716;BMP280;50159;49.426;11.182;2022-11-15T08:50:30;97297.72;;;12.14
17716;BMP280;50159;49.426;11.182;2022-11-15T08:53:07;97294.19;;;12.15
17716;BMP280;50159;49.426;11.182;2022-11-15T08:55:40;97300.75;;;12.19
17716;BMP280;50159;49.426;11.182;2022-11-15T08:58:07;97302.09;;;12.23
17716;BMP280;50159;49.426;11.182;2022-11-15T09:00:34;97302.66;;;12.26
17716;BMP280;50159;49.426;11.182;2022-11-15T09:03:04;97296.75;;;12.33
17716;BMP280;50159;49.426;11.182;2022-11-15T09:05:31;97295.09;;;12.42
17716;BMP280;50159;49.426;11.182;2022-11-15T09:07:58;97296.75;;;12.52
17716;BMP280;50159;49.426;11.182;2022-11-15T09:10:25;97287.75;;;12.64
17716;BMP280;50159;49.426;11.182;2022-11-15T09:12:52;97298.22;;;12.73
17716;BMP280;50159;49.426;11.182;2022-11-15T09:15:18;97287.06;;;12.80
17716;BMP280;50159;49.426;11.182;2022-11-15T09:17:46;97290.06;;;12.85
17716;BMP280;50159;49.426;11.182;2022-11-15T09:20:12;97294.31;;;12.96
17716;BMP280;50159;49.426;11.182;2022-11-15T09:22:40;97282.03;;;13.05
17716;BMP280;50159;49.426;11.182;2022-11-15T09:25:08;97278.28;;;13.17
17716;BMP280;50159;49.426;11.182;2022-11-15T09:27:37;97286.75;;;13.28
17716;BMP280;50159;49.426;11.182;2022-11-15T09:30:04;97276.06;;;13.39
17716;BMP280;50159;49.426;11.182;2022-11-15T09:32:31;97274.69;;;13.44
17716;BMP280;50159;49.426;11.182;2022-11-15T09:35:05;97275.97;;;13.58
17716;BMP280;50159;49.426;11.182;2022-11-15T09:37:32;97265.63;;;13.66
17716;BMP280;50159;49.426;11.182;2022-11-15T09:39:59;97271.88;;;13.72
17716;BMP280;50159;49.426;11.182;2022-11-15T09:45:31;97268.47;;;13.89
17716;BMP280;50159;49.426;11.182;2022-11-15T09:50:49;97267.09;;;13.94
17716;BMP280;50159;49.426;11.182;2022-11-15T09:53:48;97256.97;;;13.99
17716;BMP280;50159;49.426;11.182;2022-11-15T09:56:42;97248.25;;;14.08
17716;BMP280;50159;49.426;11.182;2022-11-15T10:02:33;97242.56;;;14.30
17716;BMP280;50159;49.426;11.182;2022-11-15T10:05:03;97235.72;;;14.36
17716;BMP280;50159;49.426;11.182;2022-11-15T10:10:47;97232.03;;;14.47
17716;BMP280;50159;49.426;11.182;2022-11-15T10:13:26;97224.91;;;14.56
17716;BMP280;50159;49.426;11.182;2022-11-15T10:16:02;97229.22;;;14.65
17716;BMP280;50159;49.426;11.182;2022-11-15T10:24:28;97208.97;;;14.75
17716;BMP280;50159;49.426;11.182;2022-11-15T10:26:57;97212.63;;;14.82
17716;BMP280;50159;49.426;11.182;2022-11-15T10:29:24;97195.00;;;14.92
17716;BMP280;50159;49.426;11.182;2022-11-15T10:31:53;97197.88;;;15.06
17716;BMP280;50159;49.426;11.182;2022-11-15T10:34:26;97188.44;;;15.21
17716;BMP280;50159;49.426;11.182;2022-11-15T10:36:58;97193.22;;;15.33
17716;BMP280;50159;49.426;11.182;2022-11-15T10:39:25;97188.19;;;15.47
17716;BMP280;50159;49.426;11.182;2022-11-15T10:41:52;97184.94;;;15.61
17716;BMP280;50159;49.426;11.182;2022-11-15T10:44:31;97182.47;;;15.75
17716;BMP280;50159;49.426;11.182;2022-11-15T10:49:26;97173.47;;;15.85
17716;BMP280;50159;49.426;11.182;2022-11-15T10:54:37;97164.97;;;15.99
17716;BMP280;50159;49.426;11.182;2022-11-15T10:57:15;97165.31;;;16.12
17716;BMP280;50159;49.426;11.182;2022-11-15T10:59:48;97156.28;;;16.22
17716;BMP280;50159;49.426;11.182;2022-11-15T11:03:02;97147.41;;;16.46
17716;BMP280;50159;49.426;11.182;2022-11-15T11:05:44;97137.47;;;16.72
17716;BMP280;50159;49.426;11.182;2022-11-15T11:10:56;97139.34;;;17.01
17716;BMP280;50159;49.426;11.182;2022-11-15T11:13:37;97139.28;;;17.17
17716;BMP280;50159;49.426;11.182;2022-11-15T11:22:19;97120.28;;;17.59
17716;BMP280;50159;49.426;11.182;2022-11-15T11:28:14;97121.84;;;18.12
17716;BMP280;50159;49.426;11.182;2022-11-15T11:34:15;97114.72;;;18.48
17716;BMP280;50159;49.426;11.182;2022-11-15T11:42:29;97106.16;;;18.83
17716;BMP280;50159;49.426;11.182;2022-11-15T11:47:51;97093.38;;;19.00
17716;BMP280;50159;49.426;11.182;2022-11-15T11:50:26;97101.19;;;19.08
17716;BMP280;50159;49.426;11.182;2022-11-15T11:53:17;97091.38;;;19.16
17716;BMP280;50159;49.426;11.182;2022-11-15T11:55:53;97086.78;;;19.25
17716;BMP280;50159;49.426;11.182;2022-11-15T11:58:43;97077.16;;;19.31
17716;BMP280;50159;49.426;11.182;2022-11-15T12:01:24;97078.81;;;19.39
17716;BMP280;50159;49.426;11.182;2022-11-15T12:04:18;97076.44;;;19.23
17716;BMP280;50159;49.426;11.182;2022-11-15T12:07:01;97066.50;;;19.05
17716;BMP280;50159;49.426;11.182;2022-11-15T12:09:33;97060.69;;;18.95
17716;BMP280;50159;49.426;11.182;2022-11-15T12:17:38;97058.00;;;19.44
17716;BMP280;50159;49.426;11.182;2022-11-15T12:20:25;97047.81;;;19.20
17716;BMP280;50159;49.426;11.182;2022-11-15T12:25:53;97052.69;;;19.23
17716;BMP280;50159;49.426;11.182;2022-11-15T12:28:49;97045.34;;;19.39
17716;BMP280;50159;49.426;11.182;2022-11-15T12:34:13;97041.66;;;19.96
17716;BMP280;50159;49.426;11.182;2022-11-15T12:36:44;97045.44;;;19.87
17716;BMP280;50159;49.426;11.182;2022-11-15T12:39:13;97039.66;;;19.77
17716;BMP280;50159;49.426;11.182;2022-11-15T12:41:43;97031.91;;;19.69
17716;BMP280;50159;49.426;11.182;2022-11-15T12:47:24;97033.22;;;20.40
17716;BMP280;50159;49.426;11.182;2022-11-15T12:49:52;97032.16;;;20.61
17716;BMP280;50159;49.426;11.182;2022-11-15T12:52:19;97026.38;;;20.85
17716;BMP280;50159;49.426;11.182;2022-11-15T12:54:59;97019.16;;;21.06
17716;BMP280;50159;49.426;11.182;2022-11-15T12:57:34;97026.22;;;20.92
17716;BMP280;50159;49.426;11.182;2022-11-15T13:02:43;97010.09;;;20.42
17716;BMP280;50159;49.426;11.182;2022-11-15T13:18:54;97010.34;;;20.46
17716;BMP280;50159;49.426;11.182;2022-11-15T13:21:23;97006.44;;;20.42
17716;BMP280;50159;49.426;11.182;2022-11-15T13:24:16;96999.88;;;20.32
17716;BMP280;50159;49.426;11.182;2022-11-15T13:26:43;96998.16;;;20.19
17716;BMP280;50159;49.426;11.182;2022-11-15T13:29:16;96988.09;;;20.01
17716;BMP280;50159;49.426;11.182;2022-11-15T13:31:45;96989.09;;;19.53
17716;BMP280;50159;49.426;11.182;2022-11-15T13:34:30;96992.63;;;18.98
17716;BMP280;50159;49.426;11.182;2022-11-15T13:39:48;96987.25;;;18.15
17716;BMP280;50159;49.426;11.182;2022-11-15T13:42:18;96979.94;;;17.88
17716;BMP280;50159;49.426;11.182;2022-11-15T13:45:00;96978.75;;;17.62
17716;BMP280;50159;49.426;11.182;2022-11-15T13:47:29;96975.81;;;17.43
17716;BMP280;50159;49.426;11.182;2022-11-15T13:49:57;96976.41;;;17.31
17716;BMP280;50159;49.426;11.182;2022-11-15T13:52:33;96977.69;;;17.13
17716;BMP280;50159;49.426;11.182;2022-11-15T13:55:13;96969.88;;;17.05
17716;BMP280;50159;49.426;11.182;2022-11-15T13:57:58;96958.03;;;17.45
17716;BMP280;50159;49.426;11.182;2022-11-15T14:00:43;96961.94;;;19.11
17716;BMP280;50159;49.426;11.182;2022-11-15T14:03:25;96945.69;;;20.95
17716;BMP280;50159;49.426;11.182;2022-11-15T14:06:15;96948.31;;;22.47
17716;BMP280;50159;49.426;11.182;2022-11-15T14:09:04;96944.50;;;23.23
17716;BMP280;50159;49.426;11.182;2022-11-15T14:11:55;96942.97;;;23.40
17716;BMP280;50159;49.426;11.182;2022-11-15T14:14:25;96944.28;;;23.25
17716;BMP280;50159;49.426;11.182;2022-11-15T14:17:00;96939.22;;;22.87
17716;BMP280;50159;49.426;11.182;2022-11-15T14:22:23;96943.94;;;21.40
17716;BMP280;50159;49.426;11.182;2022-11-15T14:27:34;96945.50;;;19.30
17716;BMP280;50159;49.426;11.182;2022-11-15T14:30:02;96943.75;;;18.47
17716;BMP280;50159;49.426;11.182;2022-11-15T14:32:47;96934.72;;;17.78
17716;BMP280;50159;49.426;11.182;2022-11-15T14:35:21;96928.97;;;17.25
17716;BMP280;50159;49.426;11.182;2022-11-15T14:37:48;96939.94;;;16.84
17716;BMP280;50159;49.426;11.182;2022-11-15T14:40:21;96940.81;;;16.55
17716;BMP280;50159;49.426;11.182;2022-11-15T14:42:49;96943.75;;;16.30
17716;BMP280;50159;49.426;11.182;2022-11-15T14:45:20;96936.97;;;16.05
17716;BMP280;50159;49.426;11.182;2022-11-15T14:47:47;96936.38;;;15.80
17716;BMP280;50159;49.426;11.182;2022-11-15T14:50:18;96936.75;;;15.53
17716;BMP280;50159;49.426;11.182;2022-11-15T14:52:46;96927.59;;;15.26
17716;BMP280;50159;49.426;11.182;2022-11-15T14:55:27;96935.94;;;14.98
17716;BMP280;50159;49.426;11.182;2022-11-15T14:57:55;96928.25;;;14.73
17716;BMP280;50159;49.426;11.182;2022-11-15T15:00:22;96926.56;;;14.49
17716;BMP280;50159;49.426;11.182;2022-11-15T15:02:53;96924.53;;;14.27
17716;BMP280;50159;49.426;11.182;2022-11-15T15:05:36;96925.97;;;14.06
17716;BMP280;50159;49.426;11.182;2022-11-15T15:08:05;96923.72;;;13.86
17716;BMP280;50159;49.426;11.182;2022-11-15T15:10:41;96909.28;;;13.66
17716;BMP280;50159;49.426;11.182;2022-11-15T15:13:25;96909.31;;;13.42
17716;BMP280;50159;49.426;11.182;2022-11-15T15:15:52;96921.41;;;13.25
17716;BMP280;50159;49.426;11.182;2022-11-15T15:18:19;96908.59;;;13.07
17716;BMP280;50159;49.426;11.182;2022-11-15T15:20:55;96894.06;;;12.87
17716;BMP280;50159;49.426;11.182;2022-11-15T15:23:23;96894.75;;;12.72
17716;BMP280;50159;49.426;11.182;2022-11-15T15:25:51;96894.44;;;12.58
17716;BMP280;50159;49.426;11.182;2022-11-15T15:28:19;96893.50;;;12.42
17716;BMP280;50159;49.426;11.182;2022-11-15T15:30:45;96890.59;;;12.28
17716;BMP280;50159;49.426;11.182;2022-11-15T15:33:12;96893.84;;;12.12
17716;BMP280;50159;49.426;11.182;2022-11-15T15:35:39;96890.41;;;11.95
17716;BMP280;50159;49.426;11.182;2022-11-15T15:38:06;96877.34;;;11.78
17716;BMP280;50159;49.426;11.182;2022-11-15T15:40:34;96878.66;;;11.64
17716;BMP280;50159;49.426;11.182;2022-11-15T15:43:01;96876.38;;;11.52
17716;BMP280;50159;49.426;11.182;2022-11-15T15:45:28;96883.56;;;11.41
17716;BMP280;50159;49.426;11.182;2022-11-15T15:47:58;96876.56;;;11.32
17716;BMP280;50159;49.426;11.182;2022-11-15T15:50:34;96898.22;;;11.23
17716;BMP280;50159;49.426;11.182;2022-11-15T15:53:07;96898.13;;;11.16
17716;BMP280;50159;49.426;11.182;2022-11-15T15:55:35;96899.78;;;11.07
17716;BMP280;50159;49.426;11.182;2022-11-15T15:58:03;96899.66;;;10.99
17716;BMP280;50159;49.426;11.182;2022-11-15T16:00:31;96896.28;;;10.90
17716;BMP280;50159;49.426;11.182;2022-11-15T16:03:01;96895.19;;;10.83
17716;BMP280;50159;49.426;11.182;2022-11-15T16:05:28;96890.28;;;10.80